createdAt,value
2023-02-15T00:01:44.171Z,29.70
2023-02-15T00:04:13.591Z,26.55
2023-02-15T00:06:40.720Z,26.73
2023-02-15T00:09:07.581Z,29.50
2023-02-15T00:11:40.800Z,25.88
2023-02-15T00:14:17.227Z,28.38
2023-02-15T00:16:46.063Z,25.85
2023-02-15T00:19:15.145Z,28.00
2023-02-15T00:21:42.477Z,28.67
2023-02-15T00:24:12.598Z,28.30
2023-02-15T00:26:41.247Z,30.02
2023-02-15T00:29:08.989Z,27.00
2023-02-15T00:31:36.665Z,31.63
2023-02-15T00:34:08.943Z,29.88
2023-02-15T00:36:36.665Z,28.88
2023-02-15T00:39:04.093Z,27.35
2023-02-15T00:41:34.815Z,27.17
2023-02-15T00:44:02.068Z,28.73
2023-02-15T00:46:30.465Z,31.00
2023-02-15T00:48:57.506Z,27.20
2023-02-15T00:51:25.055Z,30.33
2023-02-15T00:53:52.200Z,27.70
2023-02-15T00:56:19.352Z,26.23
2023-02-15T00:58:46.223Z,28.33
2023-02-15T01:01:16.476Z,31.33
2023-02-15T01:03:43.828Z,32.33
2023-02-15T01:06:11.873Z,28.13
2023-02-15T01:08:39.436Z,32.47
2023-02-15T01:11:22.737Z,33.65
2023-02-15T01:13:53.790Z,30.67
2023-02-15T01:16:21.599Z,34.47
2023-02-15T01:18:49.203Z,28.30
2023-02-15T01:21:21.984Z,32.15
2023-02-15T01:23:49.346Z,31.95
2023-02-15T01:26:17.193Z,34.53
2023-02-15T01:28:45.474Z,33.30
2023-02-15T01:31:15.737Z,29.83
2023-02-15T01:33:44.863Z,33.30
2023-02-15T01:36:12.302Z,30.58
2023-02-15T01:38:40.948Z,28.10
2023-02-15T01:41:21.408Z,30.35
2023-02-15T01:43:54.792Z,29.83
2023-02-15T01:46:44.749Z,31.55
2023-02-15T01:49:21.644Z,25.70
2023-02-15T01:51:52.178Z,29.75
2023-02-15T01:54:32.495Z,25.08
2023-02-15T01:57:06.228Z,24.30
2023-02-15T01:59:35.109Z,25.85
2023-02-15T02:02:02.774Z,27.50
2023-02-15T02:04:49.332Z,26.55
2023-02-15T02:07:21.871Z,26.42
2023-02-15T02:09:49.448Z,22.60
2023-02-15T02:12:18.794Z,25.13
2023-02-15T02:14:48.018Z,24.10
2023-02-15T02:17:26.580Z,24.63
2023-02-15T02:19:59.650Z,23.95
2023-02-15T02:22:45.419Z,25.42
2023-02-15T02:25:30.917Z,23.58
2023-02-15T02:28:22.157Z,22.42
2023-02-15T02:31:10.577Z,19.58
2023-02-15T02:33:40.746Z,18.77
2023-02-15T02:36:27.162Z,24.15
2023-02-15T02:39:03.481Z,18.17
2023-02-15T02:41:48.790Z,18.20
2023-02-15T02:44:28.848Z,15.05
2023-02-15T02:47:00.460Z,17.10
2023-02-15T02:49:43.686Z,17.45
2023-02-15T02:52:43.481Z,14.60
2023-02-15T02:55:31.468Z,16.63
2023-02-15T02:58:02.119Z,14.15
2023-02-15T03:00:33.036Z,13.90
2023-02-15T03:03:09.364Z,14.20
2023-02-15T03:05:42.529Z,16.83
2023-02-15T03:08:10.969Z,13.75
2023-02-15T03:10:41.161Z,15.23
2023-02-15T03:13:09.668Z,12.10
2023-02-15T03:15:59.508Z,11.50
2023-02-15T03:18:35.166Z,10.07
2023-02-15T03:21:03.729Z,9.88
2023-02-15T03:23:33.435Z,10.63
2023-02-15T03:26:04.223Z,12.48
2023-02-15T03:28:43.349Z,11.55
2023-02-15T03:31:12.521Z,12.18
2023-02-15T03:33:48.878Z,12.30
2023-02-15T03:36:21.272Z,13.40
2023-02-15T03:39:11.053Z,11.27
2023-02-15T03:41:45.963Z,10.35
2023-02-15T03:44:51.930Z,11.38
2023-02-15T03:47:21.865Z,11.50
2023-02-15T03:50:05.464Z,11.75
2023-02-15T03:52:35.195Z,13.10
2023-02-15T03:55:02.249Z,14.60
2023-02-15T03:57:48.892Z,11.90
2023-02-15T04:00:41.196Z,10.23
2023-02-15T04:03:23.391Z,12.07
2023-02-15T04:05:50.688Z,8.75
2023-02-15T04:08:17.721Z,11.73
2023-02-15T04:10:53.676Z,10.98
2023-02-15T04:13:22.460Z,12.27
2023-02-15T04:16:05.380Z,11.27
2023-02-15T04:19:01.444Z,11.52
2023-02-15T04:21:49.925Z,9.98
2023-02-15T04:24:36.721Z,11.18
2023-02-15T04:27:05.276Z,13.27
2023-02-15T04:29:32.811Z,11.18
2023-02-15T04:32:03.042Z,12.82
2023-02-15T04:34:30.252Z,14.00
2023-02-15T04:36:57.183Z,11.63
2023-02-15T04:39:24.062Z,10.40
2023-02-15T04:41:50.868Z,10.95
2023-02-15T04:44:17.776Z,12.68
2023-02-15T04:46:44.709Z,12.00
2023-02-15T04:49:11.556Z,13.02
2023-02-15T04:51:38.460Z,10.52
2023-02-15T04:54:05.418Z,13.30
2023-02-15T04:56:34.169Z,12.60
2023-02-15T04:59:01.677Z,14.77
2023-02-15T05:01:28.560Z,17.65
2023-02-15T05:03:55.682Z,17.88
2023-02-15T05:06:22.828Z,16.25
2023-02-15T05:08:49.647Z,14.85
2023-02-15T05:11:16.411Z,15.18
2023-02-15T05:13:43.555Z,17.27
2023-02-15T05:16:10.472Z,14.77
2023-02-15T05:18:37.464Z,15.57
2023-02-15T05:21:04.335Z,17.67
2023-02-15T05:23:31.452Z,17.48
2023-02-15T05:26:17.143Z,20.08
2023-02-15T05:28:44.228Z,15.50
2023-02-15T05:31:17.937Z,14.90
2023-02-15T05:33:45.533Z,17.55
2023-02-15T05:36:12.786Z,17.10
2023-02-15T05:38:40.077Z,14.27
2023-02-15T05:41:08.327Z,15.68
2023-02-15T05:43:35.799Z,14.07
2023-02-15T05:46:03.705Z,15.75
2023-02-15T05:48:31.041Z,15.27
2023-02-15T05:51:01.872Z,17.73
2023-02-15T05:53:31.250Z,17.88
2023-02-15T05:56:00.859Z,16.80
2023-02-15T05:58:30.306Z,14.23
2023-02-15T06:00:57.209Z,15.35
2023-02-15T06:03:26.684Z,19.02
2023-02-15T06:05:53.932Z,20.40
2023-02-15T06:08:21.602Z,24.17
2023-02-15T06:10:48.751Z,20.63
2023-02-15T06:13:16.243Z,23.88
2023-02-15T06:15:43.289Z,21.50
2023-02-15T06:18:10.140Z,23.73
2023-02-15T06:20:37.034Z,24.00
2023-02-15T06:23:04.157Z,26.08
2023-02-15T06:25:31.319Z,37.70
2023-02-15T06:27:58.854Z,30.08
2023-02-15T06:30:28.846Z,28.00
2023-02-15T06:32:55.740Z,21.63
2023-02-15T06:35:22.974Z,24.20
2023-02-15T06:37:50.429Z,23.65
2023-02-15T06:40:17.499Z,22.30
2023-02-15T06:42:44.495Z,24.45
2023-02-15T06:45:12.310Z,22.35
2023-02-15T06:47:39.224Z,22.80
2023-02-15T06:50:07.713Z,21.58
2023-02-15T06:52:34.976Z,20.25
2023-02-15T06:55:02.613Z,22.00
2023-02-15T06:57:29.779Z,22.98
2023-02-15T06:59:56.825Z,23.48
2023-02-15T07:02:23.699Z,21.10
2023-02-15T07:04:50.653Z,25.10
2023-02-15T07:07:17.605Z,22.85
2023-02-15T07:09:44.469Z,23.02
2023-02-15T07:12:29.868Z,20.67
2023-02-15T07:14:56.906Z,21.45
2023-02-15T07:17:39.024Z,22.63
2023-02-15T07:20:08.949Z,21.73
2023-02-15T07:22:37.241Z,27.77
2023-02-15T07:25:09.348Z,30.30
2023-02-15T07:27:36.476Z,30.85
2023-02-15T07:30:05.559Z,26.17
2023-02-15T07:32:34.224Z,21.10
2023-02-15T07:35:01.502Z,22.50
2023-02-15T07:37:28.986Z,26.58
2023-02-15T07:39:55.865Z,21.05
2023-02-15T07:42:23.221Z,20.80
2023-02-15T07:44:50.422Z,23.00
2023-02-15T07:47:17.326Z,22.80
2023-02-15T07:49:44.151Z,22.45
2023-02-15T07:52:11.032Z,22.55
2023-02-15T07:54:38.042Z,24.70
2023-02-15T07:57:05.265Z,23.98
2023-02-15T07:59:32.272Z,31.63
2023-02-15T08:01:59.166Z,23.88
2023-02-15T08:04:26.311Z,25.00
2023-02-15T08:06:55.250Z,26.08
2023-02-15T08:09:22.599Z,26.85
2023-02-15T08:11:50.041Z,27.20
2023-02-15T08:14:25.505Z,27.90
2023-02-15T08:16:57.699Z,29.40
2023-02-15T08:19:27.117Z,28.23
2023-02-15T08:21:59.554Z,31.67
2023-02-15T08:24:29.315Z,33.17
2023-02-15T08:26:56.782Z,24.42
2023-02-15T08:29:27.623Z,23.75
2023-02-15T08:31:59.939Z,23.23
2023-02-15T08:34:27.307Z,24.70
2023-02-15T08:36:54.218Z,25.67
2023-02-15T08:39:21.064Z,27.40
2023-02-15T08:41:48.853Z,27.05
2023-02-15T08:44:17.803Z,25.55
2023-02-15T08:46:45.936Z,23.55
2023-02-15T08:49:22.915Z,31.35
2023-02-15T08:51:50.990Z,21.85
2023-02-15T08:54:22.780Z,26.58
2023-02-15T08:56:49.888Z,23.85
2023-02-15T08:59:21.986Z,28.60
2023-02-15T09:01:51.162Z,27.40
2023-02-15T09:04:18.631Z,31.50
2023-02-15T09:06:48.750Z,28.05
2023-02-15T09:09:17.913Z,27.45
2023-02-15T09:11:47.318Z,25.50
2023-02-15T09:14:17.180Z,24.63
2023-02-15T09:16:47.493Z,31.45
2023-02-15T09:19:14.572Z,24.90
2023-02-15T09:21:42.158Z,23.20
2023-02-15T09:24:11.264Z,22.70
2023-02-15T09:26:43.364Z,22.73
2023-02-15T09:29:11.658Z,25.27
2023-02-15T09:31:47.403Z,31.20
2023-02-15T09:34:19.672Z,23.95
2023-02-15T09:36:47.696Z,24.60
2023-02-15T09:39:18.254Z,23.08
2023-02-15T09:42:06.479Z,23.38
2023-02-15T09:45:01.568Z,19.13
2023-02-15T09:47:55.417Z,20.45
2023-02-15T09:50:57.247Z,22.40
2023-02-15T09:53:49.773Z,18.13
2023-02-15T09:56:40.193Z,20.27
2023-02-15T09:59:20.389Z,20.95
2023-02-15T10:02:14.513Z,19.45
2023-02-15T10:04:47.595Z,21.27
2023-02-15T10:07:36.758Z,20.15
2023-02-15T10:10:26.359Z,18.48
2023-02-15T10:13:05.525Z,19.65
2023-02-15T10:16:15.146Z,19.90
2023-02-15T10:19:11.167Z,21.73
2023-02-15T10:21:52.878Z,22.00
2023-02-15T10:24:48.759Z,18.88
2023-02-15T10:27:22.749Z,16.52
2023-02-15T10:30:09.324Z,20.73
2023-02-15T10:32:50.650Z,19.15
2023-02-15T10:35:37.087Z,18.80
2023-02-15T10:38:34.391Z,17.42
2023-02-15T10:41:47.209Z,17.10
2023-02-15T10:44:28.419Z,17.45
2023-02-15T10:47:12.624Z,17.25
2023-02-15T10:50:03.399Z,16.60
2023-02-15T10:53:00.135Z,18.35
2023-02-15T10:55:53.938Z,17.13
2023-02-15T10:58:55.190Z,14.70
2023-02-15T11:01:31.671Z,17.00
2023-02-15T11:04:04.581Z,15.60
2023-02-15T11:06:33.868Z,15.60
2023-02-15T11:09:10.776Z,16.73
2023-02-15T11:11:45.973Z,16.85
2023-02-15T11:14:18.091Z,14.23
2023-02-15T11:16:51.784Z,12.75
2023-02-15T11:19:27.040Z,17.20
2023-02-15T11:22:05.012Z,15.23
2023-02-15T11:24:37.220Z,13.02
2023-02-15T11:27:05.849Z,13.45
2023-02-15T11:29:34.863Z,17.02
2023-02-15T11:32:13.708Z,14.82
2023-02-15T11:35:12.957Z,14.10
2023-02-15T11:37:52.005Z,16.60
2023-02-15T11:40:25.721Z,11.18
2023-02-15T11:42:57.181Z,12.32
2023-02-15T11:45:31.296Z,9.55
2023-02-15T11:48:00.281Z,11.35
2023-02-15T11:50:32.263Z,11.93
2023-02-15T11:53:22.258Z,8.73
2023-02-15T11:55:51.891Z,10.13
2023-02-15T11:58:44.454Z,9.02
2023-02-15T12:01:21.677Z,8.10
2023-02-15T12:04:08.021Z,8.80
2023-02-15T12:06:39.742Z,7.32
2023-02-15T12:09:10.904Z,10.20
2023-02-15T12:11:41.001Z,8.60
2023-02-15T12:14:12.800Z,7.60
2023-02-15T12:16:49.240Z,8.60
2023-02-15T12:19:28.915Z,8.43
2023-02-15T12:21:57.043Z,9.23
2023-02-15T12:24:34.637Z,6.88
2023-02-15T12:27:03.598Z,8.20
2023-02-15T12:29:52.970Z,8.15
2023-02-15T12:32:47.500Z,11.18
2023-02-15T12:35:21.583Z,9.45
2023-02-15T12:38:18.023Z,9.02
2023-02-15T12:40:59.430Z,10.95
2023-02-15T12:43:34.159Z,8.98
2023-02-15T12:46:23.027Z,8.75
2023-02-15T12:49:20.417Z,6.28
2023-02-15T12:51:55.118Z,5.65
2023-02-15T12:54:48.263Z,6.25
2023-02-15T12:57:20.966Z,8.82
2023-02-15T13:00:04.298Z,8.43
2023-02-15T13:02:43.242Z,6.63
2023-02-15T13:05:38.329Z,8.02
2023-02-15T13:08:35.518Z,6.35
2023-02-15T13:11:11.049Z,7.97
2023-02-15T13:13:54.165Z,8.82
2023-02-15T13:16:37.631Z,7.25
2023-02-15T13:19:19.551Z,5.18
2023-02-15T13:21:52.595Z,7.80
2023-02-15T13:24:30.268Z,7.22
2023-02-15T13:27:14.145Z,6.30
2023-02-15T13:29:45.863Z,4.55
2023-02-15T13:32:34.027Z,4.03
2023-02-15T13:35:04.849Z,4.75
2023-02-15T13:37:50.168Z,4.72
2023-02-15T13:40:29.363Z,4.05
2023-02-15T13:43:11.844Z,7.60
2023-02-15T13:45:41.506Z,4.28
2023-02-15T13:48:14.685Z,5.03
2023-02-15T13:51:05.010Z,3.90
2023-02-15T13:53:37.459Z,5.25
2023-02-15T13:56:30.943Z,4.85
2023-02-15T13:59:19.875Z,2.67
2023-02-15T14:02:02.630Z,2.10
2023-02-15T14:05:00.010Z,2.45
2023-02-15T14:07:46.722Z,3.35
2023-02-15T14:10:34.567Z,3.78
2023-02-15T14:13:25.978Z,3.15
2023-02-15T14:15:58.835Z,3.33
2023-02-15T14:18:42.188Z,2.05
2023-02-15T14:21:52.161Z,2.85
2023-02-15T14:24:18.878Z,1.83
2023-02-15T14:27:09.399Z,2.30
2023-02-15T14:29:59.994Z,3.10
2023-02-15T14:33:22.749Z,2.20
2023-02-15T14:35:49.755Z,21.08
2023-02-15T14:38:22.657Z,3.10
2023-02-15T14:41:03.539Z,2.33
2023-02-15T14:43:46.029Z,1.42
2023-02-15T14:46:39.902Z,2.13
2023-02-15T14:49:13.091Z,2.15
2023-02-15T14:51:48.524Z,1.10
2023-02-15T14:54:18.314Z,1.13
2023-02-15T14:56:46.368Z,2.53
2023-02-15T14:59:17.704Z,1.60
2023-02-15T15:01:59.719Z,3.15
2023-02-15T15:04:36.368Z,2.65
2023-02-15T15:07:08.619Z,2.63
2023-02-15T15:09:38.690Z,2.75
2023-02-15T15:12:38.164Z,2.38
2023-02-15T15:15:06.306Z,2.15
2023-02-15T15:17:33.462Z,5.63
2023-02-15T15:20:05.978Z,1.30
2023-02-15T15:22:34.625Z,1.20
2023-02-15T15:25:32.184Z,1.98
2023-02-15T15:27:59.621Z,1.60
2023-02-15T15:30:26.501Z,1.77
2023-02-15T15:33:04.993Z,2.47
2023-02-15T15:35:57.557Z,2.38
2023-02-15T15:38:51.738Z,4.93
2023-02-15T15:41:37.411Z,2.00
2023-02-15T15:44:28.713Z,4.28
2023-02-15T15:47:23.385Z,2.45
2023-02-15T15:49:50.673Z,2.85
2023-02-15T15:52:32.852Z,2.92
2023-02-15T15:55:14.700Z,6.45
2023-02-15T15:57:45.307Z,3.50
2023-02-15T16:00:24.498Z,2.00
2023-02-15T16:02:52.887Z,3.42
2023-02-15T16:05:20.875Z,4.03
2023-02-15T16:07:47.980Z,3.45
2023-02-15T16:10:23.920Z,2.28
2023-02-15T16:12:51.911Z,3.10
2023-02-15T16:15:25.285Z,7.07
2023-02-15T16:17:55.982Z,3.20
2023-02-15T16:20:26.099Z,6.63
2023-02-15T16:23:11.983Z,7.68
2023-02-15T16:26:08.355Z,7.20
2023-02-15T16:28:35.706Z,6.40
2023-02-15T16:31:15.525Z,9.00
2023-02-15T16:33:44.028Z,8.65
2023-02-15T16:36:25.629Z,8.65
2023-02-15T16:38:52.463Z,8.75
2023-02-15T16:41:30.161Z,7.10
2023-02-15T16:44:08.882Z,11.50
2023-02-15T16:46:42.478Z,10.98
2023-02-15T16:49:27.321Z,7.20
2023-02-15T16:52:03.732Z,9.15
2023-02-15T16:54:32.433Z,11.90
2023-02-15T16:57:00.332Z,7.15
2023-02-15T16:59:35.298Z,9.35
2023-02-15T17:02:06.249Z,8.00
2023-02-15T17:04:35.485Z,9.38
2023-02-15T17:07:21.972Z,11.40
2023-02-15T17:09:54.164Z,13.52
2023-02-15T17:12:46.130Z,10.00
2023-02-15T17:15:25.910Z,7.13
2023-02-15T17:17:52.936Z,7.10
2023-02-15T17:20:21.929Z,8.57
2023-02-15T17:22:48.927Z,10.18
2023-02-15T17:25:46.905Z,7.45
2023-02-15T17:28:20.539Z,26.23
2023-02-15T17:31:15.229Z,9.32
2023-02-15T17:33:48.973Z,11.50
2023-02-15T17:36:23.248Z,12.70
2023-02-15T17:39:20.861Z,15.23
2023-02-15T17:41:48.444Z,10.13
2023-02-15T17:44:16.715Z,11.18
2023-02-15T17:46:44.677Z,18.33
2023-02-15T17:49:24.517Z,49.30
2023-02-15T17:51:51.423Z,40.25
2023-02-15T17:54:37.289Z,35.80
2023-02-15T17:57:06.867Z,20.45
2023-02-15T17:59:33.669Z,19.13
2023-02-15T18:02:19.407Z,24.27
2023-02-15T18:05:04.892Z,21.67
2023-02-15T18:07:50.277Z,18.98
2023-02-15T18:10:37.743Z,19.23
2023-02-15T18:13:05.242Z,27.33
2023-02-15T18:15:32.290Z,35.75
2023-02-15T18:18:00.587Z,33.35
2023-02-15T18:20:37.317Z,40.00
2023-02-15T18:23:04.316Z,33.20
2023-02-15T18:25:31.155Z,35.67
2023-02-15T18:27:57.940Z,34.63
2023-02-15T18:30:27.914Z,28.50
2023-02-15T18:32:57.051Z,29.60
2023-02-15T18:35:28.479Z,38.85
2023-02-15T18:37:55.672Z,42.67
2023-02-15T18:40:26.482Z,59.50
2023-02-15T18:42:53.661Z,61.15
2023-02-15T18:45:24.845Z,70.80
2023-02-15T18:47:51.822Z,59.35
2023-02-15T18:50:21.712Z,49.17
2023-02-15T18:52:52.918Z,45.08
2023-02-15T18:55:25.393Z,40.08
2023-02-15T18:57:54.604Z,33.22
2023-02-15T19:00:32.426Z,35.42
2023-02-15T19:03:02.108Z,22.67
2023-02-15T19:05:30.766Z,28.38
2023-02-15T19:08:00.125Z,25.35
2023-02-15T19:10:30.840Z,21.55
2023-02-15T19:12:57.893Z,20.08
2023-02-15T19:15:27.041Z,16.85
2023-02-15T19:17:55.697Z,17.30
2023-02-15T19:20:26.308Z,23.38
2023-02-15T19:22:55.671Z,25.88
2023-02-15T19:25:25.724Z,22.67
2023-02-15T19:27:54.252Z,36.13
2023-02-15T19:30:28.805Z,32.03
2023-02-15T19:32:57.166Z,20.73
2023-02-15T19:35:29.556Z,17.23
2023-02-15T19:37:59.229Z,15.32
2023-02-15T19:40:28.809Z,14.48
2023-02-15T19:42:56.369Z,17.02
2023-02-15T19:45:26.655Z,15.95
2023-02-15T19:47:55.148Z,12.38
2023-02-15T19:50:26.489Z,12.55
2023-02-15T19:52:53.660Z,12.55
2023-02-15T19:55:32.734Z,15.32
2023-02-15T19:58:01.017Z,13.32
2023-02-15T20:00:33.293Z,12.27
2023-02-15T20:03:00.823Z,12.55
2023-02-15T20:05:30.499Z,13.50
2023-02-15T20:07:58.407Z,14.95
2023-02-15T20:10:28.929Z,16.10
2023-02-15T20:12:56.208Z,13.73
2023-02-15T20:15:25.204Z,16.90
2023-02-15T20:17:52.491Z,13.60
2023-02-15T20:20:20.579Z,16.67
2023-02-15T20:22:49.964Z,12.80
2023-02-15T20:25:21.316Z,11.43
2023-02-15T20:27:48.794Z,15.35
2023-02-15T20:30:24.134Z,13.38
2023-02-15T20:32:51.779Z,15.60
2023-02-15T20:35:21.168Z,14.18
2023-02-15T20:37:53.841Z,10.48
2023-02-15T20:40:27.117Z,14.98
2023-02-15T20:42:55.055Z,14.68
2023-02-15T20:45:32.877Z,13.15
2023-02-15T20:48:01.868Z,14.48
2023-02-15T20:50:33.266Z,18.27
2023-02-15T20:53:02.942Z,19.90
2023-02-15T20:55:31.851Z,20.00
2023-02-15T20:57:59.672Z,29.58
2023-02-15T21:00:29.646Z,22.83
2023-02-15T21:03:01.434Z,24.05
2023-02-15T21:05:30.844Z,21.85
2023-02-15T21:07:57.866Z,19.33
2023-02-15T21:10:28.066Z,15.07
2023-02-15T21:12:57.039Z,20.42
2023-02-15T21:15:34.194Z,13.13
2023-02-15T21:18:12.563Z,15.00
2023-02-15T21:20:45.536Z,14.15
2023-02-15T21:23:14.789Z,15.90
2023-02-15T21:25:44.433Z,18.05
2023-02-15T21:28:20.549Z,15.48
2023-02-15T21:30:49.184Z,14.82
2023-02-15T21:33:16.782Z,17.98
2023-02-15T21:35:47.199Z,17.98
2023-02-15T21:38:20.841Z,16.33
2023-02-15T21:40:48.593Z,18.05
2023-02-15T21:43:38.599Z,17.85
2023-02-15T21:46:41.987Z,21.58
2023-02-15T21:49:08.805Z,19.23
2023-02-15T21:51:54.218Z,20.27
2023-02-15T21:54:21.662Z,23.92
2023-02-15T21:56:50.965Z,23.35
2023-02-15T21:59:18.888Z,21.55
2023-02-15T22:01:51.352Z,17.60
2023-02-15T22:04:27.095Z,20.42
2023-02-15T22:06:54.738Z,20.85
2023-02-15T22:09:25.155Z,20.92
2023-02-15T22:11:52.562Z,21.75
2023-02-15T22:14:37.206Z,20.83
2023-02-15T22:17:19.661Z,25.13
2023-02-15T22:19:48.931Z,23.70
2023-02-15T22:22:18.300Z,19.52
2023-02-15T22:24:46.096Z,23.88
2023-02-15T22:27:25.753Z,20.77
2023-02-15T22:29:54.091Z,22.50
2023-02-15T22:32:26.594Z,24.17
2023-02-15T22:34:54.620Z,21.23
2023-02-15T22:37:21.947Z,25.15
2023-02-15T22:39:48.969Z,26.48
2023-02-15T22:42:27.330Z,23.50
2023-02-15T22:44:57.916Z,22.67
2023-02-15T22:47:27.296Z,28.50
2023-02-15T22:49:56.941Z,26.33
2023-02-15T22:52:24.161Z,25.23
2023-02-15T22:54:50.988Z,25.73
2023-02-15T22:57:30.616Z,23.98
2023-02-15T22:59:59.463Z,27.98
2023-02-15T23:02:26.879Z,28.95
2023-02-15T23:04:53.822Z,23.23
2023-02-15T23:07:23.208Z,26.95
2023-02-15T23:09:51.211Z,26.20
2023-02-15T23:12:54.149Z,25.27
2023-02-15T23:15:20.938Z,25.00
2023-02-15T23:17:47.825Z,26.33
2023-02-15T23:20:17.940Z,26.75
2023-02-15T23:22:44.847Z,19.05
2023-02-15T23:25:12.446Z,17.90
2023-02-15T23:27:57.586Z,13.95
2023-02-15T23:30:25.094Z,12.00
2023-02-15T23:32:56.333Z,15.40
2023-02-15T23:35:23.260Z,10.65
2023-02-15T23:37:50.305Z,11.98
2023-02-15T23:40:38.976Z,12.55
2023-02-15T23:43:07.222Z,10.90
2023-02-15T23:45:38.177Z,8.60
2023-02-15T23:48:35.368Z,9.18
2023-02-15T23:51:03.068Z,8.75
2023-02-15T23:53:30.544Z,9.90
2023-02-15T23:55:58.545Z,10.82
2023-02-15T23:58:33.648Z,7.82
